Terminal Aerodrome Forecast
Issued by NWS

Home | Current Version | Previous Version | Text Only | Print | Product List | Glossary On
Versions: 1 2 3 4 5 6 7 8 9 10 11 12 13 14 15 16 17 18 19 20 21
529
FTUS41 KBTV 111139
TAFMSS
TAF
KMSS 111139Z 1112/1212 27010KT P6SM VCSH OVC025
      TEMPO 1112/1116 2SM -SN BR OVC015
     FM111600 29012KT P6SM OVC020
     FM112300 27014KT P6SM BKN030
     FM120300 26009KT P6SM SCT250
     FM120600 25005KT P6SM SCT250=

USA.gov is the U.S. government's official web portal to all federal, state and local government web resources and services.